sensor_id;sensor_type;location;lat;lon;timestamp;pressure;altitude;pressure_sealevel;temperature
45701;BMP280;36277;32.852;-116.998;2023-04-25T00:01:22;99658.59;;;25.50
45701;BMP280;36277;32.852;-116.998;2023-04-25T00:03:49;99651.34;;;25.68
45701;BMP280;36277;32.852;-116.998;2023-04-25T00:06:16;99658.38;;;25.84
45701;BMP280;36277;32.852;-116.998;2023-04-25T00:08:43;99662.78;;;25.98
45701;BMP280;36277;32.852;-116.998;2023-04-25T00:11:10;99657.44;;;26.09
45701;BMP280;36277;32.852;-116.998;2023-04-25T00:13:36;99659.88;;;25.80
45701;BMP280;36277;32.852;-116.998;2023-04-25T00:16:02;99670.94;;;25.22
45701;BMP280;36277;32.852;-116.998;2023-04-25T00:18:29;99675.13;;;24.92
45701;BMP280;36277;32.852;-116.998;2023-04-25T00:20:56;99665.75;;;24.86
45701;BMP280;36277;32.852;-116.998;2023-04-25T00:23:22;99669.19;;;25.08
45701;BMP280;36277;32.852;-116.998;2023-04-25T00:25:50;99668.81;;;25.30
45701;BMP280;36277;32.852;-116.998;2023-04-25T00:28:16;99673.47;;;25.49
45701;BMP280;36277;32.852;-116.998;2023-04-25T00:30:43;99677.28;;;25.67
45701;BMP280;36277;32.852;-116.998;2023-04-25T00:33:09;99669.63;;;25.82
45701;BMP280;36277;32.852;-116.998;2023-04-25T00:35:36;99673.44;;;25.94
45701;BMP280;36277;32.852;-116.998;2023-04-25T00:38:02;99668.28;;;26.04
45701;BMP280;36277;32.852;-116.998;2023-04-25T00:40:28;99673.25;;;25.83
45701;BMP280;36277;32.852;-116.998;2023-04-25T00:42:55;99674.31;;;25.36
45701;BMP280;36277;32.852;-116.998;2023-04-25T00:45:21;99672.94;;;24.68
45701;BMP280;36277;32.852;-116.998;2023-04-25T00:47:47;99680.19;;;24.82
45701;BMP280;36277;32.852;-116.998;2023-04-25T00:50:13;99677.69;;;25.06
45701;BMP280;36277;32.852;-116.998;2023-04-25T00:52:41;99677.94;;;25.30
45701;BMP280;36277;32.852;-116.998;2023-04-25T00:55:10;99670.47;;;25.50
45701;BMP280;36277;32.852;-116.998;2023-04-25T00:57:37;99680.25;;;25.66
45701;BMP280;36277;32.852;-116.998;2023-04-25T01:00:05;99685.13;;;25.77
45701;BMP280;36277;32.852;-116.998;2023-04-25T01:02:33;99681.09;;;25.92
45701;BMP280;36277;32.852;-116.998;2023-04-25T01:05:02;99680.66;;;26.02
45701;BMP280;36277;32.852;-116.998;2023-04-25T01:07:28;99685.72;;;26.11
45701;BMP280;36277;32.852;-116.998;2023-04-25T01:09:55;99688.25;;;26.19
45701;BMP280;36277;32.852;-116.998;2023-04-25T01:12:21;99681.81;;;26.25
45701;BMP280;36277;32.852;-116.998;2023-04-25T01:14:48;99686.50;;;26.31
45701;BMP280;36277;32.852;-116.998;2023-04-25T01:17:14;99686.66;;;25.86
45701;BMP280;36277;32.852;-116.998;2023-04-25T01:19:40;99681.97;;;25.28
45701;BMP280;36277;32.852;-116.998;2023-04-25T01:22:07;99688.44;;;24.69
45701;BMP280;36277;32.852;-116.998;2023-04-25T01:24:36;99689.16;;;25.03
45701;BMP280;36277;32.852;-116.998;2023-04-25T01:27:03;99684.53;;;25.23
45701;BMP280;36277;32.852;-116.998;2023-04-25T01:29:31;99690.25;;;25.41
45701;BMP280;36277;32.852;-116.998;2023-04-25T01:31:59;99694.31;;;25.58
45701;BMP280;36277;32.852;-116.998;2023-04-25T01:34:25;99690.44;;;25.72
45701;BMP280;36277;32.852;-116.998;2023-04-25T01:36:53;99682.38;;;25.83
45701;BMP280;36277;32.852;-116.998;2023-04-25T01:39:19;99686.63;;;25.92
45701;BMP280;36277;32.852;-116.998;2023-04-25T01:41:47;99680.84;;;26.00
45701;BMP280;36277;32.852;-116.998;2023-04-25T01:44:13;99689.97;;;26.07
45701;BMP280;36277;32.852;-116.998;2023-04-25T01:46:40;99681.88;;;26.12
45701;BMP280;36277;32.852;-116.998;2023-04-25T01:49:07;99694.84;;;26.18
45701;BMP280;36277;32.852;-116.998;2023-04-25T01:51:33;99695.91;;;26.24
45701;BMP280;36277;32.852;-116.998;2023-04-25T01:54:00;99689.06;;;26.26
45701;BMP280;36277;32.852;-116.998;2023-04-25T01:56:36;99692.03;;;26.31
45701;BMP280;36277;32.852;-116.998;2023-04-25T01:59:03;99699.25;;;26.32
45701;BMP280;36277;32.852;-116.998;2023-04-25T02:01:29;99697.13;;;26.34
45701;BMP280;36277;32.852;-116.998;2023-04-25T02:03:55;99687.31;;;26.38
45701;BMP280;36277;32.852;-116.998;2023-04-25T02:06:22;99696.25;;;26.40
45701;BMP280;36277;32.852;-116.998;2023-04-25T02:08:48;99689.66;;;26.41
45701;BMP280;36277;32.852;-116.998;2023-04-25T02:11:14;99689.44;;;26.42
45701;BMP280;36277;32.852;-116.998;2023-04-25T02:13:41;99689.25;;;26.44
45701;BMP280;36277;32.852;-116.998;2023-04-25T02:16:07;99688.19;;;26.45
45701;BMP280;36277;32.852;-116.998;2023-04-25T02:18:33;99692.84;;;26.44
45701;BMP280;36277;32.852;-116.998;2023-04-25T02:21:00;99689.03;;;26.45
45701;BMP280;36277;32.852;-116.998;2023-04-25T02:23:27;99692.66;;;26.46
45701;BMP280;36277;32.852;-116.998;2023-04-25T02:25:54;99683.28;;;26.47
45701;BMP280;36277;32.852;-116.998;2023-04-25T02:28:21;99688.81;;;26.47
45701;BMP280;36277;32.852;-116.998;2023-04-25T02:30:47;99688.81;;;26.47
45701;BMP280;36277;32.852;-116.998;2023-04-25T02:33:13;99681.16;;;26.49
45701;BMP280;36277;32.852;-116.998;2023-04-25T02:35:42;99692.00;;;26.50
45701;BMP280;36277;32.852;-116.998;2023-04-25T02:38:08;99693.69;;;26.51
45701;BMP280;36277;32.852;-116.998;2023-04-25T02:40:35;99694.53;;;26.52
45701;BMP280;36277;32.852;-116.998;2023-04-25T02:43:01;99694.09;;;26.55
45701;BMP280;36277;32.852;-116.998;2023-04-25T02:45:27;99701.13;;;26.51
45701;BMP280;36277;32.852;-116.998;2023-04-25T02:47:53;99703.03;;;26.57
45701;BMP280;36277;32.852;-116.998;2023-04-25T02:50:20;99700.53;;;26.36
45701;BMP280;36277;32.852;-116.998;2023-04-25T02:52:46;99702.34;;;26.05
45701;BMP280;36277;32.852;-116.998;2023-04-25T02:55:13;99709.59;;;25.73
45701;BMP280;36277;32.852;-116.998;2023-04-25T02:57:40;99706.00;;;25.34
45701;BMP280;36277;32.852;-116.998;2023-04-25T03:00:06;99705.97;;;25.21
45701;BMP280;36277;32.852;-116.998;2023-04-25T03:02:33;99702.38;;;25.33
45701;BMP280;36277;32.852;-116.998;2023-04-25T03:04:59;99706.22;;;25.45
45701;BMP280;36277;32.852;-116.998;2023-04-25T03:07:25;99702.59;;;25.58
45701;BMP280;36277;32.852;-116.998;2023-04-25T03:09:52;99711.72;;;25.71
45701;BMP280;36277;32.852;-116.998;2023-04-25T03:12:18;99718.31;;;25.77
45701;BMP280;36277;32.852;-116.998;2023-04-25T03:14:44;99717.06;;;25.86
45701;BMP280;36277;32.852;-116.998;2023-04-25T03:17:11;99720.66;;;25.86
45701;BMP280;36277;32.852;-116.998;2023-04-25T03:19:37;99728.31;;;25.71
45701;BMP280;36277;32.852;-116.998;2023-04-25T03:22:03;99727.47;;;25.58
45701;BMP280;36277;32.852;-116.998;2023-04-25T03:24:29;99724.91;;;25.43
45701;BMP280;36277;32.852;-116.998;2023-04-25T03:26:55;99732.34;;;25.49
45701;BMP280;36277;32.852;-116.998;2023-04-25T03:29:22;99734.91;;;25.51
45701;BMP280;36277;32.852;-116.998;2023-04-25T03:31:50;99737.66;;;25.57
45701;BMP280;36277;32.852;-116.998;2023-04-25T03:34:19;99737.88;;;25.56
45701;BMP280;36277;32.852;-116.998;2023-04-25T03:36:47;99747.22;;;25.61
45701;BMP280;36277;32.852;-116.998;2023-04-25T03:39:13;99758.50;;;25.73
45701;BMP280;36277;32.852;-116.998;2023-04-25T03:41:39;99758.91;;;25.76
45701;BMP280;36277;32.852;-116.998;2023-04-25T03:44:06;99757.47;;;25.80
45701;BMP280;36277;32.852;-116.998;2023-04-25T03:46:32;99769.56;;;25.79
45701;BMP280;36277;32.852;-116.998;2023-04-25T03:48:58;99773.78;;;25.75
45701;BMP280;36277;32.852;-116.998;2023-04-25T03:51:25;99774.22;;;25.66
45701;BMP280;36277;32.852;-116.998;2023-04-25T03:53:52;99772.53;;;25.58
45701;BMP280;36277;32.852;-116.998;2023-04-25T03:56:18;99777.78;;;25.27
45701;BMP280;36277;32.852;-116.998;2023-04-25T03:58:44;99786.06;;;25.21
45701;BMP280;36277;32.852;-116.998;2023-04-25T04:01:10;99792.66;;;25.27
45701;BMP280;36277;32.852;-116.998;2023-04-25T04:03:37;99799.72;;;25.35
45701;BMP280;36277;32.852;-116.998;2023-04-25T04:06:07;99795.88;;;25.43
45701;BMP280;36277;32.852;-116.998;2023-04-25T04:08:34;99803.53;;;25.41
45701;BMP280;36277;32.852;-116.998;2023-04-25T04:11:01;99805.41;;;25.15
45701;BMP280;36277;32.852;-116.998;2023-04-25T04:13:28;99815.72;;;24.53
45701;BMP280;36277;32.852;-116.998;2023-04-25T04:15:55;99811.41;;;24.44
45701;BMP280;36277;32.852;-116.998;2023-04-25T04:18:21;99806.78;;;24.51
45701;BMP280;36277;32.852;-116.998;2023-04-25T04:20:48;99810.44;;;24.58
45701;BMP280;36277;32.852;-116.998;2023-04-25T04:23:14;99819.38;;;24.66
45701;BMP280;36277;32.852;-116.998;2023-04-25T04:25:40;99816.06;;;24.77
45701;BMP280;36277;32.852;-116.998;2023-04-25T04:28:07;99823.97;;;24.93
45701;BMP280;36277;32.852;-116.998;2023-04-25T04:30:33;99815.34;;;25.09
45701;BMP280;36277;32.852;-116.998;2023-04-25T04:33:02;99817.94;;;25.17
45701;BMP280;36277;32.852;-116.998;2023-04-25T04:35:29;99818.72;;;25.05
45701;BMP280;36277;32.852;-116.998;2023-04-25T04:37:55;99819.97;;;24.96
45701;BMP280;36277;32.852;-116.998;2023-04-25T04:40:22;99823.56;;;24.90
45701;BMP280;36277;32.852;-116.998;2023-04-25T04:42:48;99829.19;;;24.41
45701;BMP280;36277;32.852;-116.998;2023-04-25T04:45:15;99820.81;;;24.49
45701;BMP280;36277;32.852;-116.998;2023-04-25T04:47:41;99825.09;;;24.58
45701;BMP280;36277;32.852;-116.998;2023-04-25T04:50:09;99825.38;;;24.70
45701;BMP280;36277;32.852;-116.998;2023-04-25T04:52:37;99827.34;;;24.82
45701;BMP280;36277;32.852;-116.998;2023-04-25T04:55:04;99834.38;;;24.98
45701;BMP280;36277;32.852;-116.998;2023-04-25T04:57:31;99829.75;;;25.05
45701;BMP280;36277;32.852;-116.998;2023-04-25T04:59:59;99831.31;;;25.14
45701;BMP280;36277;32.852;-116.998;2023-04-25T05:02:25;99834.97;;;25.21
45701;BMP280;36277;32.852;-116.998;2023-04-25T05:04:52;99834.72;;;25.22
45701;BMP280;36277;32.852;-116.998;2023-04-25T05:07:18;99839.19;;;25.23
45701;BMP280;36277;32.852;-116.998;2023-04-25T05:09:45;99826.22;;;25.24
45701;BMP280;36277;32.852;-116.998;2023-04-25T05:12:11;99834.09;;;25.27
45701;BMP280;36277;32.852;-116.998;2023-04-25T05:14:37;99829.03;;;25.30
45701;BMP280;36277;32.852;-116.998;2023-04-25T05:17:03;99845.19;;;25.33
45701;BMP280;36277;32.852;-116.998;2023-04-25T05:19:34;99849.44;;;25.35
45701;BMP280;36277;32.852;-116.998;2023-04-25T05:22:01;99850.06;;;25.37
45701;BMP280;36277;32.852;-116.998;2023-04-25T05:24:27;99849.44;;;25.35
45701;BMP280;36277;32.852;-116.998;2023-04-25T05:26:53;99847.31;;;25.37
45701;BMP280;36277;32.852;-116.998;2023-04-25T05:29:19;99841.78;;;25.37
45701;BMP280;36277;32.852;-116.998;2023-04-25T05:31:45;99840.72;;;25.38
45701;BMP280;36277;32.852;-116.998;2023-04-25T05:34:13;99845.38;;;25.38
45701;BMP280;36277;32.852;-116.998;2023-04-25T05:36:39;99840.50;;;25.40
45701;BMP280;36277;32.852;-116.998;2023-04-25T05:39:05;99839.69;;;25.39
45701;BMP280;36277;32.852;-116.998;2023-04-25T05:41:32;99843.50;;;25.38
45701;BMP280;36277;32.852;-116.998;2023-04-25T05:43:58;99837.97;;;25.38
45701;BMP280;36277;32.852;-116.998;2023-04-25T05:46:24;99837.97;;;25.38
45701;BMP280;36277;32.852;-116.998;2023-04-25T05:48:51;99839.03;;;25.37
45701;BMP280;36277;32.852;-116.998;2023-04-25T05:51:17;99828.63;;;25.39
45701;BMP280;36277;32.852;-116.998;2023-04-25T05:53:44;99825.22;;;25.37
45701;BMP280;36277;32.852;-116.998;2023-04-25T05:56:10;99831.38;;;25.39
45701;BMP280;36277;32.852;-116.998;2023-04-25T05:58:36;99828.16;;;25.36
45701;BMP280;36277;32.852;-116.998;2023-04-25T06:01:03;99830.75;;;25.37
45701;BMP280;36277;32.852;-116.998;2023-04-25T06:03:29;99837.31;;;25.36
45701;BMP280;36277;32.852;-116.998;2023-04-25T06:05:56;99821.81;;;25.35
45701;BMP280;36277;32.852;-116.998;2023-04-25T06:08:22;99817.13;;;25.36
45701;BMP280;36277;32.852;-116.998;2023-04-25T06:10:48;99823.28;;;25.31
45701;BMP280;36277;32.852;-116.998;2023-04-25T06:13:15;99822.88;;;25.34
45701;BMP280;36277;32.852;-116.998;2023-04-25T06:15:41;99818.63;;;25.32
45701;BMP280;36277;32.852;-116.998;2023-04-25T06:18:08;99819.69;;;25.31
45701;BMP280;36277;32.852;-116.998;2023-04-25T06:20:34;99825.22;;;25.31
45701;BMP280;36277;32.852;-116.998;2023-04-25T06:23:01;99821.81;;;25.29
45701;BMP280;36277;32.852;-116.998;2023-04-25T06:25:27;99813.50;;;25.29
45701;BMP280;36277;32.852;-116.998;2023-04-25T06:27:53;99813.28;;;25.30
45701;BMP280;36277;32.852;-116.998;2023-04-25T06:30:20;99817.09;;;25.29
45701;BMP280;36277;32.852;-116.998;2023-04-25T06:32:50;99815.81;;;25.26
45701;BMP280;36277;32.852;-116.998;2023-04-25T06:35:17;99822.00;;;25.27
45701;BMP280;36277;32.852;-116.998;2023-04-25T06:37:43;99830.28;;;25.27
45701;BMP280;36277;32.852;-116.998;2023-04-25T06:40:09;99828.38;;;25.28
45701;BMP280;36277;32.852;-116.998;2023-04-25T06:42:36;99820.50;;;25.25
45701;BMP280;36277;32.852;-116.998;2023-04-25T06:45:03;99823.47;;;25.24
45701;BMP280;36277;32.852;-116.998;2023-04-25T06:47:29;99820.94;;;25.22
45701;BMP280;36277;32.852;-116.998;2023-04-25T06:49:56;99828.56;;;25.20
45701;BMP280;36277;32.852;-116.998;2023-04-25T06:52:22;99826.66;;;25.21
45701;BMP280;36277;32.852;-116.998;2023-04-25T06:54:48;99826.88;;;25.19
45701;BMP280;36277;32.852;-116.998;2023-04-25T06:57:15;99831.75;;;25.17
45701;BMP280;36277;32.852;-116.998;2023-04-25T06:59:41;99826.44;;;25.16
45701;BMP280;36277;32.852;-116.998;2023-04-25T07:02:07;99825.56;;;25.15
45701;BMP280;36277;32.852;-116.998;2023-04-25T07:04:34;99828.13;;;25.17
45701;BMP280;36277;32.852;-116.998;2023-04-25T07:07:00;99825.38;;;25.17
45701;BMP280;36277;32.852;-116.998;2023-04-25T07:09:28;99819.00;;;25.16
45701;BMP280;36277;32.852;-116.998;2023-04-25T07:11:54;99812.63;;;25.16
45701;BMP280;36277;32.852;-116.998;2023-04-25T07:14:22;99815.38;;;25.16
45701;BMP280;36277;32.852;-116.998;2023-04-25T07:16:48;99819.22;;;25.15
45701;BMP280;36277;32.852;-116.998;2023-04-25T07:19:15;99813.69;;;25.15
45701;BMP280;36277;32.852;-116.998;2023-04-25T07:21:41;99805.41;;;25.15
45701;BMP280;36277;32.852;-116.998;2023-04-25T07:24:07;99808.16;;;25.15
45701;BMP280;36277;32.852;-116.998;2023-04-25T07:26:34;99808.16;;;25.15
45701;BMP280;36277;32.852;-116.998;2023-04-25T07:29:00;99806.47;;;25.14
45701;BMP280;36277;32.852;-116.998;2023-04-25T07:31:26;99796.44;;;25.13
45701;BMP280;36277;32.852;-116.998;2023-04-25T07:33:53;99798.19;;;25.14
45701;BMP280;36277;32.852;-116.998;2023-04-25T07:36:19;99801.09;;;25.12
45701;BMP280;36277;32.852;-116.998;2023-04-25T07:38:46;99799.59;;;25.10
45701;BMP280;36277;32.852;-116.998;2023-04-25T07:41:12;99794.09;;;25.10
45701;BMP280;36277;32.852;-116.998;2023-04-25T07:43:39;99789.44;;;25.10
45701;BMP280;36277;32.852;-116.998;2023-04-25T07:46:05;99794.97;;;25.10
45701;BMP280;36277;32.852;-116.998;2023-04-25T07:48:32;99799.59;;;25.10
45701;BMP280;36277;32.852;-116.998;2023-04-25T07:50:58;99799.59;;;25.10
45701;BMP280;36277;32.852;-116.998;2023-04-25T07:53:24;99796.19;;;25.08
45701;BMP280;36277;32.852;-116.998;2023-04-25T07:55:50;99803.44;;;25.09
45701;BMP280;36277;32.852;-116.998;2023-04-25T07:58:17;99797.06;;;25.08
45701;BMP280;36277;32.852;-116.998;2023-04-25T08:00:47;99794.50;;;25.07
45701;BMP280;36277;32.852;-116.998;2023-04-25T08:03:14;99799.19;;;25.06
45701;BMP280;36277;32.852;-116.998;2023-04-25T08:05:40;99804.72;;;25.06
45701;BMP280;36277;32.852;-116.998;2023-04-25T08:08:06;99807.47;;;25.06
45701;BMP280;36277;32.852;-116.998;2023-04-25T08:10:33;99805.78;;;25.05
45701;BMP280;36277;32.852;-116.998;2023-04-25T08:13:00;99803.00;;;25.05
45701;BMP280;36277;32.852;-116.998;2023-04-25T08:15:26;99812.13;;;25.06
45701;BMP280;36277;32.852;-116.998;2023-04-25T08:17:52;99804.91;;;25.05
45701;BMP280;36277;32.852;-116.998;2023-04-25T08:20:18;99795.78;;;25.04
45701;BMP280;36277;32.852;-116.998;2023-04-25T08:22:45;99794.28;;;25.02
45701;BMP280;36277;32.852;-116.998;2023-04-25T08:25:11;99790.44;;;25.03
45701;BMP280;36277;32.852;-116.998;2023-04-25T08:27:37;99795.97;;;25.03
45701;BMP280;36277;32.852;-116.998;2023-04-25T08:30:04;99798.72;;;25.03
45701;BMP280;36277;32.852;-116.998;2023-04-25T08:32:31;99795.97;;;25.03
45701;BMP280;36277;32.852;-116.998;2023-04-25T08:34:57;99791.50;;;25.02
45701;BMP280;36277;32.852;-116.998;2023-04-25T08:37:23;99790.66;;;25.01
45701;BMP280;36277;32.852;-116.998;2023-04-25T08:39:50;99789.81;;;25.01
45701;BMP280;36277;32.852;-116.998;2023-04-25T08:42:18;99774.94;;;25.02
45701;BMP280;36277;32.852;-116.998;2023-04-25T08:44:48;99778.34;;;25.04
45701;BMP280;36277;32.852;-116.998;2023-04-25T08:47:15;99774.28;;;25.00
45701;BMP280;36277;32.852;-116.998;2023-04-25T08:49:45;99774.09;;;25.01
45701;BMP280;36277;32.852;-116.998;2023-04-25T08:52:13;99774.50;;;24.98
45701;BMP280;36277;32.852;-116.998;2023-04-25T08:54:43;99768.56;;;25.01
45701;BMP280;36277;32.852;-116.998;2023-04-25T08:57:14;99776.41;;;24.98
45701;BMP280;36277;32.852;-116.998;2023-04-25T08:59:41;99776.41;;;24.98
45701;BMP280;36277;32.852;-116.998;2023-04-25T09:02:12;99773.66;;;24.98
45701;BMP280;36277;32.852;-116.998;2023-04-25T09:04:44;99768.34;;;24.96
45701;BMP280;36277;32.852;-116.998;2023-04-25T09:07:10;99769.63;;;24.94
45701;BMP280;36277;32.852;-116.998;2023-04-25T09:09:36;99767.69;;;24.94
45701;BMP280;36277;32.852;-116.998;2023-04-25T09:12:03;99761.34;;;24.94
45701;BMP280;36277;32.852;-116.998;2023-04-25T09:14:29;99769.81;;;24.92
45701;BMP280;36277;32.852;-116.998;2023-04-25T09:19:23;99760.28;;;24.95
45701;BMP280;36277;32.852;-116.998;2023-04-25T09:21:50;99750.31;;;24.94
45701;BMP280;36277;32.852;-116.998;2023-04-25T09:24:39;99755.41;;;24.97
45701;BMP280;36277;32.852;-116.998;2023-04-25T09:27:09;99748.78;;;24.91
45701;BMP280;36277;32.852;-116.998;2023-04-25T09:29:40;99738.81;;;24.90
45701;BMP280;36277;32.852;-116.998;2023-04-25T09:32:21;99748.59;;;24.93
45701;BMP280;36277;32.852;-116.998;2023-04-25T09:34:49;99739.03;;;24.89
45701;BMP280;36277;32.852;-116.998;2023-04-25T09:37:23;99734.34;;;24.89
45701;BMP280;36277;32.852;-116.998;2023-04-25T09:39:54;99729.03;;;24.88
45701;BMP280;36277;32.852;-116.998;2023-04-25T09:42:25;99729.03;;;24.88
45701;BMP280;36277;32.852;-116.998;2023-04-25T09:44:53;99724.78;;;24.85
45701;BMP280;36277;32.852;-116.998;2023-04-25T09:47:22;99721.81;;;24.87
45701;BMP280;36277;32.852;-116.998;2023-04-25T09:49:49;99729.03;;;24.88
45701;BMP280;36277;32.852;-116.998;2023-04-25T09:52:19;99722.88;;;24.86
45701;BMP280;36277;32.852;-116.998;2023-04-25T09:54:48;99721.81;;;24.87
45701;BMP280;36277;32.852;-116.998;2023-04-25T09:57:16;99714.81;;;24.84
45701;BMP280;36277;32.852;-116.998;2023-04-25T09:59:51;99723.53;;;24.88
45701;BMP280;36277;32.852;-116.998;2023-04-25T10:02:22;99721.81;;;24.87
45701;BMP280;36277;32.852;-116.998;2023-04-25T10:04:51;99718.41;;;24.85
45701;BMP280;36277;32.852;-116.998;2023-04-25T10:07:19;99723.28;;;24.83
45701;BMP280;36277;32.852;-116.998;2023-04-25T10:09:55;99716.28;;;24.87
45701;BMP280;36277;32.852;-116.998;2023-04-25T10:12:26;99719.88;;;24.81
45701;BMP280;36277;32.852;-116.998;2023-04-25T10:14:53;99723.28;;;24.83
45701;BMP280;36277;32.852;-116.998;2023-04-25T10:17:21;99720.09;;;24.79
45701;BMP280;36277;32.852;-116.998;2023-04-25T10:19:51;99723.09;;;24.84
45701;BMP280;36277;32.852;-116.998;2023-04-25T10:22:41;99716.28;;;24.87
45701;BMP280;36277;32.852;-116.998;2023-04-25T10:25:08;99706.50;;;24.78
45701;BMP280;36277;32.852;-116.998;2023-04-25T10:27:35;99712.88;;;24.78
45701;BMP280;36277;32.852;-116.998;2023-04-25T10:30:24;99707.78;;;24.82
45701;BMP280;36277;32.852;-116.998;2023-04-25T10:32:50;99702.03;;;24.77
45701;BMP280;36277;32.852;-116.998;2023-04-25T10:35:35;99706.09;;;24.81
45701;BMP280;36277;32.852;-116.998;2023-04-25T10:38:08;99710.78;;;24.80
45701;BMP280;36277;32.852;-116.998;2023-04-25T10:40:35;99707.78;;;24.75
45701;BMP280;36277;32.852;-116.998;2023-04-25T10:46:29;99706.91;;;24.75
45701;BMP280;36277;32.852;-116.998;2023-04-25T10:49:02;99703.94;;;24.70
45701;BMP280;36277;32.852;-116.998;2023-04-25T10:51:33;99708.19;;;24.72
45701;BMP280;36277;32.852;-116.998;2023-04-25T10:54:04;99704.38;;;24.73
45701;BMP280;36277;32.852;-116.998;2023-04-25T10:56:32;99714.75;;;24.71
45701;BMP280;36277;32.852;-116.998;2023-04-25T11:01:40;99716.69;;;24.71
45701;BMP280;36277;32.852;-116.998;2023-04-25T11:04:29;99722.22;;;24.71
45701;BMP280;36277;32.852;-116.998;2023-04-25T11:09:36;99724.72;;;24.66
45701;BMP280;36277;32.852;-116.998;2023-04-25T11:12:04;99722.16;;;24.64
45701;BMP280;36277;32.852;-116.998;2023-04-25T11:14:31;99714.09;;;24.63
45701;BMP280;36277;32.852;-116.998;2023-04-25T11:16:58;99725.78;;;24.65
45701;BMP280;36277;32.852;-116.998;2023-04-25T11:19:26;99719.63;;;24.63
45701;BMP280;36277;32.852;-116.998;2023-04-25T11:21:59;99717.50;;;24.65
45701;BMP280;36277;32.852;-116.998;2023-04-25T11:24:27;99718.75;;;24.62
45701;BMP280;36277;32.852;-116.998;2023-04-25T11:26:54;99717.28;;;24.60
45701;BMP280;36277;32.852;-116.998;2023-04-25T11:29:27;99721.31;;;24.64
45701;BMP280;36277;32.852;-116.998;2023-04-25T11:31:54;99717.28;;;24.60
45701;BMP280;36277;32.852;-116.998;2023-04-25T11:34:24;99718.09;;;24.60
45701;BMP280;36277;32.852;-116.998;2023-04-25T11:36:51;99720.03;;;24.60
45701;BMP280;36277;32.852;-116.998;2023-04-25T11:39:20;99723.84;;;24.59
45701;BMP280;36277;32.852;-116.998;2023-04-25T11:41:47;99734.88;;;24.59
45701;BMP280;36277;32.852;-116.998;2023-04-25T11:44:17;99728.97;;;24.62
45701;BMP280;36277;32.852;-116.998;2023-04-25T11:46:45;99728.31;;;24.60
45701;BMP280;36277;32.852;-116.998;2023-04-25T11:49:12;99730.19;;;24.59
45701;BMP280;36277;32.852;-116.998;2023-04-25T11:51:42;99725.13;;;24.63
45701;BMP280;36277;32.852;-116.998;2023-04-25T11:54:09;99734.06;;;24.58
45701;BMP280;36277;32.852;-116.998;2023-04-25T11:56:36;99735.09;;;24.57
45701;BMP280;36277;32.852;-116.998;2023-04-25T11:59:06;99736.59;;;24.60
45701;BMP280;36277;32.852;-116.998;2023-04-25T12:01:37;99732.34;;;24.57
45701;BMP280;36277;32.852;-116.998;2023-04-25T12:04:18;99720.03;;;24.60
45701;BMP280;36277;32.852;-116.998;2023-04-25T12:06:46;99715.97;;;24.56
45701;BMP280;36277;32.852;-116.998;2023-04-25T12:09:21;99714.94;;;24.57
45701;BMP280;36277;32.852;-116.998;2023-04-25T12:11:49;99720.66;;;24.55
45701;BMP280;36277;32.852;-116.998;2023-04-25T12:14:23;99731.47;;;24.57
45701;BMP280;36277;32.852;-116.998;2023-04-25T12:16:50;99732.94;;;24.53
45701;BMP280;36277;32.852;-116.998;2023-04-25T12:19:18;99731.25;;;24.52
45701;BMP280;36277;32.852;-116.998;2023-04-25T12:21:45;99724.03;;;24.51
45701;BMP280;36277;32.852;-116.998;2023-04-25T12:29:25;99741.22;;;24.53
45701;BMP280;36277;32.852;-116.998;2023-04-25T12:31:53;99743.75;;;24.48
45701;BMP280;36277;32.852;-116.998;2023-04-25T12:34:21;99739.09;;;24.48
45701;BMP280;36277;32.852;-116.998;2023-04-25T12:36:48;99737.56;;;24.46
45701;BMP280;36277;32.852;-116.998;2023-04-25T12:39:16;99748.41;;;24.47
45701;BMP280;36277;32.852;-116.998;2023-04-25T12:41:43;99749.25;;;24.48
45701;BMP280;36277;32.852;-116.998;2023-04-25T12:44:10;99747.56;;;24.47
45701;BMP280;36277;32.852;-116.998;2023-04-25T12:46:37;99748.19;;;24.49
45701;BMP280;36277;32.852;-116.998;2023-04-25T12:49:04;99746.50;;;24.48
45701;BMP280;36277;32.852;-116.998;2023-04-25T12:51:31;99744.16;;;24.45
45701;BMP280;36277;32.852;-116.998;2023-04-25T12:53:59;99740.34;;;24.46
45701;BMP280;36277;32.852;-116.998;2023-04-25T12:56:26;99747.09;;;24.43
45701;BMP280;36277;32.852;-116.998;2023-04-25T12:58:53;99744.56;;;24.42
45701;BMP280;36277;32.852;-116.998;2023-04-25T13:01:20;99744.75;;;24.40
45701;BMP280;36277;32.852;-116.998;2023-04-25T13:03:47;99744.97;;;24.39
45701;BMP280;36277;32.852;-116.998;2023-04-25T13:06:18;99740.09;;;24.41
45701;BMP280;36277;32.852;-116.998;2023-04-25T13:08:44;99747.72;;;24.39
45701;BMP280;36277;32.852;-116.998;2023-04-25T13:11:11;99748.78;;;24.38
45701;BMP280;36277;32.852;-116.998;2023-04-25T13:13:38;99754.28;;;24.38
45701;BMP280;36277;32.852;-116.998;2023-04-25T13:16:06;99759.81;;;24.38
45701;BMP280;36277;32.852;-116.998;2023-04-25T13:18:33;99763.63;;;24.37
45701;BMP280;36277;32.852;-116.998;2023-04-25T13:21:00;99756.41;;;24.36
45701;BMP280;36277;32.852;-116.998;2023-04-25T13:23:27;99756.00;;;24.39
45701;BMP280;36277;32.852;-116.998;2023-04-25T13:25:55;99764.66;;;24.36
45701;BMP280;36277;32.852;-116.998;2023-04-25T13:28:24;99764.03;;;24.34
45701;BMP280;36277;32.852;-116.998;2023-04-25T13:30:51;99763.38;;;24.32
45701;BMP280;36277;32.852;-116.998;2023-04-25T13:33:18;99754.69;;;24.35
45701;BMP280;36277;32.852;-116.998;2023-04-25T13:35:44;99760.22;;;24.35
45701;BMP280;36277;32.852;-116.998;2023-04-25T13:38:25;99756.63;;;24.41
45701;BMP280;36277;32.852;-116.998;2023-04-25T13:40:52;99765.09;;;24.39
45701;BMP280;36277;32.852;-116.998;2023-04-25T13:43:20;99767.84;;;24.39
45701;BMP280;36277;32.852;-116.998;2023-04-25T13:45:50;99767.47;;;24.42
45701;BMP280;36277;32.852;-116.998;2023-04-25T13:48:18;99767.03;;;24.45
45701;BMP280;36277;32.852;-116.998;2023-04-25T13:50:45;99768.91;;;24.38